Time;durP1;ratioP1;P1;durP2;ratioP2;P2;SDS_P1;SDS_P2;PMS_P1;PMS_P2;Temp;Humidity;BMP_temperature;BMP_pressure;BME280_temperature;BME280_humidity;BME280_pressure;Samples;Min_cycle;Max_cycle;Signal;HPM_P1;HPM_P2
2022/11/18 00:01:48;;;;;;;6.58;4.90;;;;;;;-1.56;74.57;98628.34;1743363;81;21448;-76
2022/11/18 00:04:15;;;;;;;7.70;5.45;;;;;;;-1.60;74.49;98633.44;1723030;82;21232;-76
2022/11/18 00:06:43;;;;;;;7.10;5.20;;;;;;;-1.59;74.24;98629.86;1744112;81;21067;-75
2022/11/18 00:09:10;;;;;;;8.03;5.75;;;;;;;-1.62;74.46;98637.94;1734151;81;21563;-75
2022/11/18 00:14:23;;;;;;;6.95;5.58;;;;;;;-1.65;73.96;98644.67;1740002;81;21005;-74
2022/11/18 00:16:54;;;;;;;7.42;6.05;;;;;;;-1.66;74.19;98648.20;1736780;81;21218;-76
2022/11/18 00:19:24;;;;;;;7.72;5.85;;;;;;;-1.59;74.23;98648.09;1741626;82;21006;-74
2022/11/18 00:21:51;;;;;;;8.90;6.00;;;;;;;-1.60;74.24;98646.45;1742569;80;21020;-74
2022/11/18 00:24:17;;;;;;;7.80;6.37;;;;;;;-1.56;74.10;98645.27;1751293;81;21092;-76
2022/11/18 00:26:44;;;;;;;10.35;6.92;;;;;;;-1.55;74.17;98640.88;1742398;81;21020;-76
2022/11/18 00:29:11;;;;;;;9.55;6.50;;;;;;;-1.52;74.09;98644.56;1743205;82;21481;-74
2022/11/18 00:31:39;;;;;;;13.90;7.62;;;;;;;-1.50;74.05;98636.16;1742505;81;21040;-75
2022/11/18 00:34:06;;;;;;;14.18;10.08;;;;;;;-1.51;73.84;98636.61;1742584;80;21040;-75
2022/11/18 00:36:32;;;;;;;14.15;9.88;;;;;;;-1.48;74.02;98638.98;1742423;82;21020;-75
2022/11/18 00:38:59;;;;;;;14.78;10.93;;;;;;;-1.47;74.16;98643.72;1740236;80;21060;-77
2022/11/18 00:42:50;;;;;;;14.85;9.83;;;;;;;-1.40;74.17;98641.00;1737928;82;21621;-74
2022/11/18 00:43:54;;;;;;;18.42;12.03;;;;;;;-1.39;74.06;98636.16;1736403;82;21121;-75
2022/11/18 00:46:20;;;;;;;16.42;11.88;;;;;;;-1.30;74.02;98634.59;1734996;80;20997;-76
2022/11/18 00:48:47;;;;;;;21.85;14.85;;;;;;;-1.29;73.93;98633.18;1731826;80;21097;-76
2022/11/18 00:51:16;;;;;;;18.45;14.38;;;;;;;-1.23;73.56;98626.66;1741304;82;21035;-75
2022/11/18 00:53:44;;;;;;;20.45;14.47;;;;;;;-1.24;73.34;98638.84;1731162;82;21771;-76
2022/11/18 00:56:10;;;;;;;19.17;13.30;;;;;;;-1.22;73.15;98637.42;1737996;81;21051;-77
2022/11/18 00:58:37;;;;;;;12.68;9.80;;;;;;;-1.24;73.02;98634.11;1741155;80;21052;-77
2022/11/18 01:01:03;;;;;;;17.35;11.18;;;;;;;-1.26;72.87;98637.31;1743364;81;21024;-76
2022/11/18 01:03:30;;;;;;;18.50;11.18;;;;;;;-1.27;72.84;98636.49;1743039;82;21047;-74
2022/11/18 01:05:57;;;;;;;14.10;10.10;;;;;;;-1.29;72.91;98628.45;1738461;81;21898;-74
2022/11/18 01:08:24;;;;;;;15.98;9.03;;;;;;;-1.29;72.50;98633.18;1743199;82;21567;-74
2022/11/18 01:10:51;;;;;;;12.75;8.55;;;;;;;-1.38;72.39;98636.50;1738482;81;21026;-73
2022/11/18 01:13:19;;;;;;;13.62;9.05;;;;;;;-1.41;72.46;98638.02;1738447;81;21513;-75
2022/11/18 01:15:54;;;;;;;12.95;9.93;;;;;;;-1.44;72.80;98640.89;1734936;82;21069;-75
2022/11/18 01:18:27;;;;;;;11.35;9.65;;;;;;;-1.41;72.86;98634.12;1742316;80;21161;-75
2022/11/18 01:21:00;;;;;;;11.20;9.28;;;;;;;-1.40;73.03;98630.58;1739133;81;21038;-73
2022/11/18 01:23:26;;;;;;;10.88;8.33;;;;;;;-1.35;73.07;98643.23;1727388;81;21013;-72
2022/11/18 01:25:53;;;;;;;10.25;8.35;;;;;;;-1.37;72.45;98635.56;1749073;81;22541;-75
2022/11/18 01:28:19;;;;;;;11.15;7.85;;;;;;;-1.45;72.50;98632.70;1756532;81;21046;-74
2022/11/18 01:30:46;;;;;;;11.10;6.80;;;;;;;-1.47;72.72;98638.05;1756517;81;21167;-75
2022/11/18 01:33:12;;;;;;;8.93;6.55;;;;;;;-1.49;72.67;98641.22;1753449;81;21012;-75
2022/11/18 01:35:42;;;;;;;9.23;6.67;;;;;;;-1.48;72.71;98638.98;1752252;81;21325;-74
2022/11/18 01:38:10;;;;;;;10.18;6.60;;;;;;;-1.50;72.73;98646.09;1755573;81;21121;-75
2022/11/18 01:40:37;;;;;;;11.08;6.67;;;;;;;-1.47;72.74;98647.17;1756836;81;21016;-74
2022/11/18 01:43:16;;;;;;;12.18;7.03;;;;;;;-1.48;72.86;98644.20;1740971;80;21781;-75
2022/11/18 01:45:45;;;;;;;9.48;6.87;;;;;;;-1.44;72.56;98646.92;1755219;80;21142;-73
2022/11/18 01:48:27;;;;;;;10.25;6.58;;;;;;;-1.45;72.53;98654.39;1747256;81;21580;-75
2022/11/18 01:51:05;;;;;;;9.88;7.30;;;;;;;-1.43;72.25;98652.50;1755524;81;21047;-75
2022/11/18 01:53:36;;;;;;;8.68;6.42;;;;;;;-1.45;71.86;98650.94;1748601;81;21098;-74
2022/11/18 01:56:14;;;;;;;9.63;7.35;;;;;;;-1.49;72.12;98652.13;1753446;80;21906;-73
2022/11/18 01:58:51;;;;;;;9.15;6.85;;;;;;;-1.45;71.85;98653.09;1753931;81;21059;-74
2022/11/18 02:01:18;;;;;;;8.38;6.58;;;;;;;-1.47;71.74;98645.88;1751815;81;21036;-75
2022/11/18 02:03:46;;;;;;;8.48;6.90;;;;;;;-1.48;71.93;98648.10;1746394;81;21060;-74
2022/11/18 02:06:14;;;;;;;7.97;6.62;;;;;;;-1.45;71.99;98651.79;1756439;81;20992;-74
2022/11/18 02:08:40;;;;;;;8.15;6.22;;;;;;;-1.44;72.08;98651.30;1754730;80;22046;-75
2022/11/18 02:14:04;;;;;;;8.80;5.83;;;;;;;-1.42;71.94;98658.05;1741298;81;21057;-75
2022/11/18 02:17:22;;;;;;;8.18;6.22;;;;;;;-1.37;71.63;98660.77;1756484;81;21028;-75
2022/11/18 02:20:24;;;;;;;8.85;6.00;;;;;;;-1.39;71.95;98664.34;1753010;80;21041;-73
2022/11/18 02:23:25;;;;;;;10.23;7.42;;;;;;;-1.36;72.22;98666.34;1754123;81;21142;-74
2022/11/18 02:26:46;;;;;;;8.45;6.35;;;;;;;-1.30;72.25;98662.77;1746807;81;21053;-74
2022/11/18 02:29:16;;;;;;;7.12;5.65;;;;;;;-1.28;72.18;98666.09;1708436;84;22059;-73
2022/11/18 02:32:13;;;;;;;9.43;6.87;;;;;;;-1.26;72.29;98668.58;1737880;80;21088;-75
2022/11/18 02:35:02;;;;;;;7.80;5.67;;;;;;;-1.21;72.26;98675.09;1751853;81;21564;-73
2022/11/18 02:37:48;;;;;;;11.05;7.15;;;;;;;-1.19;72.04;98678.41;1743659;81;21264;-73
2022/11/18 02:40:32;;;;;;;9.00;6.62;;;;;;;-1.16;72.02;98670.81;1755846;81;21625;-75
2022/11/18 02:43:10;;;;;;;;;;;;;;;-1.14;71.98;98668.09;1746282;80;21089;-73
2022/11/18 02:45:37;;;;;;;9.28;6.37;;;;;;;-1.19;71.76;98667.16;1741875;81;20144;-76
2022/11/18 02:48:08;;;;;;;10.10;6.83;;;;;;;-1.21;71.92;98675.09;1735250;81;21078;-75
2022/11/18 02:50:35;;;;;;;10.30;6.90;;;;;;;-1.26;72.07;98670.70;1755096;81;21089;-76
2022/11/18 02:53:04;;;;;;;7.80;6.20;;;;;;;-1.28;72.10;98670.00;1756878;81;21051;-74
2022/11/18 02:55:32;;;;;;;7.85;5.97;;;;;;;-1.27;72.21;98670.84;1754831;80;21077;-76
2022/11/18 02:57:59;;;;;;;8.43;6.00;;;;;;;-1.29;72.31;98670.96;1754182;81;21063;-75
2022/11/18 03:00:25;;;;;;;7.47;5.72;;;;;;;-1.26;72.14;98673.80;1756576;81;21059;-74
2022/11/18 03:02:52;;;;;;;7.55;6.08;;;;;;;-1.31;71.98;98675.95;1725029;81;21258;-75
2022/11/18 03:05:55;;;;;;;7.22;5.78;;;;;;;-1.31;72.06;98676.77;1750819;81;21507;-72
2022/11/18 03:08:22;;;;;;;7.80;5.87;;;;;;;-1.36;72.15;98678.89;1747307;80;21016;-75
2022/11/18 03:10:54;;;;;;;7.65;5.87;;;;;;;-1.37;72.25;98683.77;1756536;81;21031;-73
2022/11/18 03:13:33;;;;;;;9.23;5.83;;;;;;;-1.34;72.22;98681.38;1756162;81;21024;-74
2022/11/18 03:16:09;;;;;;;6.50;4.85;;;;;;;-1.34;72.33;98681.38;1748778;81;21595;-73
2022/11/18 03:18:56;;;;;;;8.03;5.53;;;;;;;-1.31;72.04;98677.25;1728834;81;21041;-75
2022/11/18 03:21:31;;;;;;;7.42;5.53;;;;;;;-1.40;71.64;98678.78;1756623;81;21090;-73
2022/11/18 03:24:03;;;;;;;5.95;4.60;;;;;;;-1.45;71.90;98683.50;1751176;80;21031;-73
2022/11/18 03:26:32;;;;;;;;;;;;;;;-1.48;72.14;98677.24;1751414;81;21016;-75
2022/11/18 03:29:06;;;;;;;6.30;4.67;;;;;;;-1.49;72.20;98673.78;1718097;82;21140;-75
2022/11/18 03:31:49;;;;;;;5.85;4.53;;;;;;;-1.47;72.33;98679.73;1730553;82;22064;-73
2022/11/18 03:34:48;;;;;;;6.92;5.17;;;;;;;-1.48;72.22;98679.36;1742295;81;21028;-74
2022/11/18 03:37:16;;;;;;;6.25;5.00;;;;;;;-1.45;72.35;98685.66;1741224;82;21597;-73
2022/11/18 03:39:54;;;;;;;8.75;5.33;;;;;;;-1.41;72.57;98684.47;1739505;80;21995;-73
2022/11/18 03:42:43;;;;;;;6.00;5.10;;;;;;;-1.37;72.42;98679.86;1731837;81;21135;-73
2022/11/18 03:45:19;;;;;;;8.13;5.50;;;;;;;-1.35;72.45;98681.02;1740912;82;21056;-73
2022/11/18 03:47:52;;;;;;;6.87;4.95;;;;;;;-1.34;72.16;98686.59;1738716;81;21065;-74
2022/11/18 03:50:23;;;;;;;7.25;4.72;;;;;;;-1.30;72.31;98695.83;1731275;80;21030;-74
2022/11/18 03:52:49;;;;;;;6.55;4.92;;;;;;;-1.29;71.99;98700.11;1723159;82;21036;-73
2022/11/18 03:55:20;;;;;;;7.95;5.22;;;;;;;-1.27;71.90;98703.42;1741257;81;21134;-74
2022/11/18 03:58:01;;;;;;;7.92;5.25;;;;;;;-1.31;71.84;98702.00;1736011;82;21019;-73
2022/11/18 04:00:34;;;;;;;6.35;4.85;;;;;;;-1.28;71.81;98704.36;1735217;82;20993;-75
2022/11/18 04:03:00;;;;;;;8.38;5.47;;;;;;;-1.23;71.93;98695.23;1739520;81;21137;-75
2022/11/18 04:05:26;;;;;;;8.58;5.28;;;;;;;-1.18;72.01;98690.96;1741231;81;21571;-75
2022/11/18 04:07:58;;;;;;;8.15;5.97;;;;;;;-1.11;71.86;98691.33;1742321;82;21146;-74
2022/11/18 04:10:44;;;;;;;9.33;5.55;;;;;;;-1.11;71.80;98693.45;1732983;82;21032;-74
2022/11/18 04:13:29;;;;;;;11.18;6.00;;;;;;;-1.05;71.71;98694.27;1742758;81;21056;-73
2022/11/18 04:15:57;;;;;;;9.70;6.35;;;;;;;-1.05;71.59;98692.97;1739518;82;21005;-73
2022/11/18 04:18:24;;;;;;;10.00;6.03;;;;;;;-1.03;71.31;98686.34;1740409;82;21008;-75
2022/11/18 04:20:50;;;;;;;9.28;5.90;;;;;;;-1.02;71.24;98691.44;1742290;81;21610;-72
2022/11/18 04:23:18;;;;;;;6.87;5.50;;;;;;;-1.02;71.25;98691.44;1730760;82;21020;-73
2022/11/18 04:25:44;;;;;;;7.70;5.33;;;;;;;-0.94;71.12;98698.66;1739665;80;21098;-76
2022/11/18 04:28:11;;;;;;;8.13;5.40;;;;;;;-1.02;70.79;98692.74;1743789;81;21596;-76
2022/11/18 04:30:38;;;;;;;9.80;6.17;;;;;;;-1.05;70.67;98696.88;1739751;81;21053;-75
2022/11/18 04:33:04;;;;;;;7.95;6.40;;;;;;;-1.12;71.04;98703.98;1737286;82;21101;-74
2022/11/18 04:35:31;;;;;;;9.70;6.12;;;;;;;-1.13;70.98;98702.34;1737465;81;21069;-75
2022/11/18 04:37:58;;;;;;;8.43;6.35;;;;;;;-1.20;71.26;98704.59;1741039;80;21029;-75
2022/11/18 04:40:26;;;;;;;9.35;6.17;;;;;;;-1.19;71.44;98704.47;1734222;82;21014;-76
2022/11/18 04:42:53;;;;;;;11.63;6.17;;;;;;;-1.20;71.98;98700.22;1742648;82;21024;-75
2022/11/18 04:45:20;;;;;;;8.13;5.83;;;;;;;-1.10;72.31;98703.40;1739533;81;21088;-75
2022/11/18 04:47:46;;;;;;;8.30;5.67;;;;;;;-1.08;72.48;98711.47;1735045;81;21132;-75
2022/11/18 04:50:15;;;;;;;8.08;5.87;;;;;;;-1.06;72.12;98714.78;1739383;81;21494;-75
2022/11/18 04:52:42;;;;;;;9.15;6.12;;;;;;;-1.07;72.33;98718.81;1743132;82;20997;-75
2022/11/18 04:55:09;;;;;;;13.05;6.22;;;;;;;-1.02;72.14;98722.72;1743351;82;21540;-74
2022/11/18 04:57:35;;;;;;;8.60;6.05;;;;;;;-1.05;72.26;98726.86;1742312;81;21954;-75
2022/11/18 05:00:04;;;;;;;9.83;6.35;;;;;;;-1.01;72.49;98732.19;1740689;82;21232;-75
2022/11/18 05:02:31;;;;;;;7.17;6.30;;;;;;;-1.03;72.82;98732.78;1738297;80;21097;-74
2022/11/18 05:04:57;;;;;;;8.78;6.67;;;;;;;-0.94;72.97;98734.34;1730427;81;21014;-75
2022/11/18 05:07:24;;;;;;;8.50;6.97;;;;;;;-0.95;72.81;98732.66;1736343;82;21035;-76
2022/11/18 05:09:50;;;;;;;9.23;6.12;;;;;;;-0.97;72.47;98732.78;1742938;82;21518;-76
2022/11/18 05:15:03;;;;;;;10.80;7.25;;;;;;;-1.03;72.60;98737.17;1730867;82;21015;-76
2022/11/18 05:17:29;;;;;;;10.58;7.08;;;;;;;-1.07;73.10;98741.79;1741471;81;22097;-77
2022/11/18 05:19:56;;;;;;;9.85;6.35;;;;;;;-1.00;73.12;98744.77;1740078;81;21133;-75
2022/11/18 05:22:23;;;;;;;8.93;6.40;;;;;;;-1.01;72.84;98741.30;1736038;81;21555;-76
2022/11/18 05:24:49;;;;;;;7.30;5.67;;;;;;;-0.94;72.90;98746.07;1747448;80;21039;-75
2022/11/18 05:27:16;;;;;;;9.48;6.90;;;;;;;-0.93;73.11;98745.10;1742669;80;20959;-76
2022/11/18 05:29:42;;;;;;;8.68;6.30;;;;;;;-0.86;72.77;98744.51;1739390;81;21550;-76
2022/11/18 05:32:09;;;;;;;9.60;7.00;;;;;;;-0.87;72.35;98743.31;1734396;81;21563;-75
2022/11/18 05:34:40;;;;;;;10.35;6.90;;;;;;;-0.84;72.21;98747.82;1743355;81;21080;-77
2022/11/18 05:37:06;;;;;;;9.90;7.37;;;;;;;-0.91;72.24;98750.55;1732631;80;21119;-76
2022/11/18 05:39:33;;;;;;;10.60;7.92;;;;;;;-0.89;72.50;98756.50;1736765;80;21096;-77
2022/11/18 05:44:45;;;;;;;10.48;7.37;;;;;;;-0.86;72.18;98744.51;1722016;82;21085;-78
2022/11/18 05:47:11;;;;;;;11.15;7.40;;;;;;;-0.84;71.84;98749.61;1740137;82;21085;-81
2022/11/18 05:49:39;;;;;;;10.70;7.28;;;;;;;-0.86;71.46;98748.42;1741959;80;20997;-79
2022/11/18 05:52:06;;;;;;;10.32;7.05;;;;;;;-0.85;71.38;98758.37;1744112;82;21072;-77
2022/11/18 05:54:33;;;;;;;10.30;6.55;;;;;;;-0.87;71.13;98766.78;1736994;81;21555;-77
2022/11/18 05:57:00;;;;;;;8.78;6.30;;;;;;;-0.92;70.42;98772.85;1728733;82;21010;-76
2022/11/18 05:59:28;;;;;;;9.93;6.33;;;;;;;-1.04;70.48;98775.94;1742177;82;21007;-77
2022/11/18 06:02:05;;;;;;;7.55;5.90;;;;;;;-1.06;70.95;98770.83;1735514;80;21953;-77
2022/11/18 06:04:42;;;;;;;9.95;7.58;;;;;;;-1.10;70.88;98772.02;1726964;82;21099;-77
2022/11/18 06:07:22;;;;;;;9.63;6.30;;;;;;;-1.11;70.95;98776.86;1722598;82;21073;-77
2022/11/18 06:09:52;;;;;;;8.08;6.30;;;;;;;-1.10;71.50;98778.98;1728957;82;21569;-76
2022/11/18 06:12:22;;;;;;;9.98;8.25;;;;;;;-1.08;71.71;98783.61;1728156;81;21082;-76
2022/11/18 06:15:04;;;;;;;10.68;8.45;;;;;;;-1.01;71.82;98786.93;1717505;80;21035;-77
2022/11/18 06:17:35;;;;;;;12.47;8.93;;;;;;;-0.98;71.66;98788.98;1718239;81;21107;-76
2022/11/18 06:20:04;;;;;;;10.60;8.27;;;;;;;-0.92;71.59;98784.59;1716253;81;21488;-77
2022/11/18 06:22:31;;;;;;;13.62;7.65;;;;;;;-0.94;71.79;98788.61;1739166;82;21578;-78
2022/11/18 06:24:58;;;;;;;11.20;7.50;;;;;;;-0.87;71.87;98785.04;1687068;82;21141;-76
2022/11/18 06:27:25;;;;;;;10.15;8.08;;;;;;;-0.90;71.93;98787.42;1704821;82;21060;-79
2022/11/18 06:29:51;;;;;;;10.08;7.45;;;;;;;-0.86;71.75;98791.92;1736923;80;21055;-78
2022/11/18 06:32:18;;;;;;;10.70;7.10;;;;;;;-0.86;71.83;98786.72;1740112;82;21029;-77
2022/11/18 06:34:44;;;;;;;9.85;7.37;;;;;;;-0.83;71.78;98787.77;1739264;82;21597;-78
2022/11/18 06:37:19;;;;;;;10.18;7.47;;;;;;;-0.83;71.78;98789.92;1741417;80;21125;-78
2022/11/18 06:41:59;;;;;;;12.37;8.23;;;;;;;-0.84;71.88;98788.24;1756674;80;22721;-78
2022/11/18 06:44:26;;;;;;;10.05;8.20;;;;;;;-0.84;71.88;98788.24;1732241;81;21017;-79
2022/11/18 06:46:55;;;;;;;10.15;7.03;;;;;;;-0.86;72.11;98788.02;1719771;81;21162;-77
2022/11/18 06:49:23;;;;;;;11.83;6.97;;;;;;;-0.88;72.19;98788.13;1730666;81;21000;-77
2022/11/18 06:51:49;;;;;;;12.37;7.47;;;;;;;-0.89;72.29;98785.63;1729742;81;21060;-78
2022/11/18 06:54:15;;;;;;;10.60;7.40;;;;;;;-0.94;72.57;98793.00;1730694;83;21549;-79
2022/11/18 06:56:42;;;;;;;13.78;7.47;;;;;;;-0.93;72.80;98788.13;1730955;81;20982;-80
2022/11/18 06:59:09;;;;;;;10.65;7.65;;;;;;;-0.96;73.04;98799.63;1734180;82;21066;-80
2022/11/18 07:01:37;;;;;;;10.48;7.08;;;;;;;-0.91;72.96;98796.66;1733853;82;20986;-80
2022/11/18 07:04:04;;;;;;;8.68;7.45;;;;;;;-0.93;73.10;98798.08;1731525;81;21046;-79
2022/11/18 07:06:33;;;;;;;10.65;7.53;;;;;;;-0.91;73.00;98797.96;1728666;81;21016;-78
2022/11/18 07:09:01;;;;;;;11.55;8.68;;;;;;;-0.91;73.07;98800.57;1729470;82;21069;-78
2022/11/18 07:11:27;;;;;;;10.68;8.95;;;;;;;-0.91;72.97;98802.70;1730811;81;21121;-77
2022/11/18 07:13:54;;;;;;;17.00;11.43;;;;;;;-0.94;73.08;98799.52;1715958;82;21501;-77
2022/11/18 07:16:23;;;;;;;15.68;10.58;;;;;;;-0.96;73.22;98805.33;1719853;81;21129;-77
2022/11/18 07:18:50;;;;;;;17.20;10.88;;;;;;;-0.97;73.33;98808.87;1729343;82;21037;-77
2022/11/18 07:21:19;;;;;;;15.20;10.72;;;;;;;-1.00;73.39;98815.16;1710692;82;21597;-77
2022/11/18 07:23:45;;;;;;;14.55;9.93;;;;;;;-0.94;73.48;98812.08;1732077;82;21248;-77
2022/11/18 07:26:12;;;;;;;13.40;8.98;;;;;;;-0.94;73.48;98816.47;1731152;81;21580;-77
2022/11/18 07:28:40;;;;;;;11.65;9.35;;;;;;;-0.93;73.16;98812.41;1729271;81;20987;-77
2022/11/18 07:31:14;;;;;;;11.28;8.55;;;;;;;-1.00;73.19;98815.98;1730690;81;21041;-81
2022/11/18 07:33:42;;;;;;;10.08;8.00;;;;;;;-1.03;72.94;98821.90;1717582;81;21799;-78
2022/11/18 07:36:13;;;;;;;13.18;9.70;;;;;;;-1.06;72.68;98828.67;1714927;81;21226;-78
2022/11/18 07:38:41;;;;;;;13.13;9.10;;;;;;;-1.10;72.92;98824.61;1713513;82;21522;-80
2022/11/18 07:41:19;;;;;;;13.18;10.23;;;;;;;-1.11;73.20;98831.60;1736667;81;21049;-79
2022/11/18 07:43:45;;;;;;;14.33;9.15;;;;;;;-1.12;73.44;98837.78;1752868;81;21021;-79
2022/11/18 07:46:19;;;;;;;14.73;9.00;;;;;;;-1.07;73.60;98840.03;1748636;81;21058;-79
2022/11/18 07:48:47;;;;;;;14.13;10.10;;;;;;;-1.06;73.77;98836.48;1752486;81;21162;-80
2022/11/18 07:51:15;;;;;;;13.45;9.45;;;;;;;-0.97;73.67;98834.46;1745625;81;21471;-80
2022/11/18 07:53:42;;;;;;;14.10;9.75;;;;;;;-0.92;73.60;98840.64;1752038;81;21047;-80
2022/11/18 07:56:09;;;;;;;11.90;9.58;;;;;;;-0.85;73.68;98839.20;1755339;81;21074;-79
2022/11/18 07:58:36;;;;;;;16.42;11.68;;;;;;;-0.78;73.64;98843.02;1749316;81;22093;-79
2022/11/18 08:01:16;;;;;;;17.40;11.15;;;;;;;-0.74;73.56;98847.04;1749278;82;21145;-78
2022/11/18 08:03:43;;;;;;;17.80;12.10;;;;;;;-0.71;72.72;98849.91;1748298;81;21074;-78
2022/11/18 08:06:13;;;;;;;14.90;11.22;;;;;;;-0.74;72.93;98854.86;1725758;83;21573;-78
2022/11/18 08:08:41;;;;;;;15.80;11.33;;;;;;;-0.70;72.95;98850.25;1726575;81;21534;-78
2022/11/18 08:11:09;;;;;;;14.43;11.00;;;;;;;-0.67;73.11;98857.37;1736996;81;21058;-80
2022/11/18 08:19:17;;;;;;;12.35;7.40;;;;;;;-0.65;72.30;98867.69;1782736;79;20982;-80
2022/11/18 08:21:45;;;;;;;13.65;8.80;;;;;;;-0.75;71.85;98870.17;1760775;80;21043;-80
2022/11/18 08:24:15;;;;;;;13.40;8.85;;;;;;;-0.74;71.93;98874.42;1784431;79;21090;-79
2022/11/18 08:26:48;;;;;;;13.48;10.65;;;;;;;-0.74;71.91;98881.43;1798533;79;21197;-80
2022/11/18 08:29:23;;;;;;;17.27;10.90;;;;;;;-0.71;71.81;98885.94;1789364;79;21018;-80
2022/11/18 08:32:04;;;;;;;21.33;12.45;;;;;;;-0.68;71.87;98892.20;1768264;80;21090;-79
2022/11/18 08:34:37;;;;;;;22.85;13.53;;;;;;;-0.71;71.50;98892.46;1752761;81;21125;-79
2022/11/18 08:37:17;;;;;;;17.82;11.73;;;;;;;-0.76;71.52;98894.58;1782400;80;21026;-79
2022/11/18 08:39:51;;;;;;;22.02;13.40;;;;;;;-0.76;71.75;98897.19;1786000;79;21101;-79
2022/11/18 08:42:29;;;;;;;25.15;14.23;;;;;;;-0.73;71.68;98899.58;1763187;80;21058;-81
2022/11/18 08:44:56;;;;;;;26.65;14.90;;;;;;;-0.73;71.61;98897.45;1797495;79;21019;-80
2022/11/18 08:47:25;;;;;;;25.27;15.70;;;;;;;-0.73;71.39;98896.97;1787748;79;21093;-80
2022/11/18 08:49:57;;;;;;;30.90;15.58;;;;;;;-0.74;71.23;98888.77;1785834;78;21113;-80
2022/11/18 08:52:21;;;;;;;36.05;16.75;;;;;;;-0.70;71.24;98895.41;1787805;79;21779;-76
2022/11/18 08:54:47;;;;;;;35.20;17.52;;;;;;;-0.68;71.11;98897.91;1786323;79;21125;-79
2022/11/18 08:57:14;;;;;;;49.40;18.98;;;;;;;-0.71;71.01;98900.29;1787855;80;20980;-79
2022/11/18 08:59:40;;;;;;;49.45;19.73;;;;;;;-0.69;70.98;98899.70;1792219;80;20983;-80
2022/11/18 09:02:14;;;;;;;38.00;18.73;;;;;;;-0.71;70.79;98902.08;1789613;78;21078;-81
2022/11/18 09:04:40;;;;;;;40.85;20.30;;;;;;;-0.68;70.34;98893.52;1786459;78;21133;-78
2022/11/18 09:07:07;;;;;;;29.18;18.67;;;;;;;-0.70;70.47;98894.11;1788414;79;21054;-79
2022/11/18 09:09:33;;;;;;;27.17;17.35;;;;;;;-0.63;70.24;98896.61;1788520;78;21065;-78
2022/11/18 09:12:00;;;;;;;26.77;18.45;;;;;;;-0.67;70.06;98896.98;1789539;78;21048;-81
2022/11/18 09:14:26;;;;;;;28.17;18.67;;;;;;;-0.66;70.39;98894.70;1788935;79;21073;-81
2022/11/18 09:16:55;;;;;;;30.43;17.48;;;;;;;-0.64;70.74;98899.33;1786613;78;21030;-79
2022/11/18 09:19:21;;;;;;;24.35;16.70;;;;;;;-0.58;70.67;98901.95;1734280;80;21053;-79
2022/11/18 09:21:48;;;;;;;25.68;17.35;;;;;;;-0.54;70.70;98902.06;1729148;81;20970;-82
2022/11/18 09:24:14;;;;;;;20.45;15.45;;;;;;;-0.53;70.49;98904.56;1725723;83;21116;-81
2022/11/18 09:26:41;;;;;;;21.27;13.68;;;;;;;-0.47;70.53;98911.09;1724867;83;21057;-79
2022/11/18 09:29:10;;;;;;;18.42;13.05;;;;;;;-0.48;70.12;98910.27;1724576;82;21517;-79
2022/11/18 09:31:36;;;;;;;17.52;13.05;;;;;;;-0.45;70.07;98912.63;1724851;83;21091;-80
2022/11/18 09:34:04;;;;;;;23.38;14.43;;;;;;;-0.43;70.03;98921.64;1722868;83;21568;-81
2022/11/18 09:36:30;;;;;;;25.35;14.87;;;;;;;-0.40;69.80;98917.50;1725254;81;21100;-83
2022/11/18 09:38:58;;;;;;;23.92;16.27;;;;;;;-0.42;69.61;98918.09;1708622;83;21186;-80
2022/11/18 09:41:45;;;;;;;25.12;17.30;;;;;;;-0.38;69.75;98922.61;1724411;83;21941;-82
2022/11/18 09:44:38;;;;;;;25.02;17.23;;;;;;;-0.40;69.76;98917.50;1723541;83;21017;-82
2022/11/18 09:47:24;;;;;;;26.53;16.33;;;;;;;-0.33;70.11;98917.39;1720964;82;21049;-81
2022/11/18 09:49:56;;;;;;;28.98;18.35;;;;;;;-0.32;69.82;98908.59;1717823;82;21105;-83
2022/11/18 09:52:32;;;;;;;24.87;16.42;;;;;;;-0.29;69.74;98916.20;1725054;82;21009;-83
2022/11/18 09:54:59;;;;;;;23.60;15.70;;;;;;;-0.30;70.09;98915.83;1724509;83;21616;-83
2022/11/18 09:57:37;;;;;;;22.13;13.90;;;;;;;-0.24;70.18;98915.83;1725198;83;21009;-82
2022/11/18 10:00:18;;;;;;;20.55;14.70;;;;;;;-0.26;69.62;98914.64;1727061;82;21041;-84
2022/11/18 10:03:00;;;;;;;23.65;14.50;;;;;;;-0.30;69.83;98910.61;1719167;81;21442;-78
2022/11/18 10:05:45;;;;;;;22.07;14.10;;;;;;;-0.26;69.90;98908.59;1693032;83;21553;-77
2022/11/18 10:08:42;;;;;;;20.95;13.98;;;;;;;-0.25;69.57;98904.57;1712660;81;21143;-77
2022/11/18 10:11:16;;;;;;;18.00;12.35;;;;;;;-0.21;69.17;98901.25;1723920;81;21029;-76
2022/11/18 10:14:00;;;;;;;16.07;11.45;;;;;;;-0.20;69.29;98896.36;1712856;81;21509;-75
2022/11/18 10:17:02;;;;;;;17.45;10.72;;;;;;;-0.12;68.70;98903.59;1724450;81;21072;-77
2022/11/18 10:19:39;;;;;;;17.17;12.80;;;;;;;-0.11;68.58;98901.36;1751083;80;21583;-76
2022/11/18 10:22:47;;;;;;;19.85;12.55;;;;;;;-0.15;67.90;98907.77;1740238;80;22448;-77
2022/11/18 10:25:15;;;;;;;19.52;12.65;;;;;;;-0.20;68.03;98901.10;1760050;80;21117;-76
2022/11/18 10:27:43;;;;;;;17.50;13.15;;;;;;;-0.29;67.97;98899.23;1757586;80;21061;-80
2022/11/18 10:30:19;;;;;;;18.23;13.20;;;;;;;-0.31;68.36;98900.28;1762517;80;21089;-80
2022/11/18 10:32:55;;;;;;;19.75;13.48;;;;;;;-0.34;68.07;98895.32;1712140;81;21690;-82
2022/11/18 10:35:37;;;;;;;20.55;13.75;;;;;;;-0.37;68.56;98895.55;1693381;84;21153;-76
2022/11/18 10:38:17;;;;;;;22.13;14.10;;;;;;;-0.30;69.11;98903.27;1695201;83;21592;-76
2022/11/18 10:40:56;;;;;;;22.05;15.78;;;;;;;-0.23;69.57;98901.84;1705721;83;21097;-76
2022/11/18 10:43:53;;;;;;;22.10;14.13;;;;;;;-0.08;69.38;98895.87;1691842;83;22346;-77
2022/11/18 10:46:34;;;;;;;18.17;14.43;;;;;;;-0.01;69.06;98897.05;1680757;83;21034;-76
2022/11/18 10:49:15;;;;;;;23.02;14.40;;;;;;;0.10;68.79;98907.48;1694029;83;22247;-75
2022/11/18 10:51:48;;;;;;;22.93;15.75;;;;;;;0.09;68.74;98905.81;1681960;83;21581;-76
2022/11/18 10:54:22;;;;;;;29.32;14.33;;;;;;;0.16;68.18;98908.30;1688831;83;21534;-76
2022/11/18 10:56:57;;;;;;;;;;;;;;;0.11;67.86;98899.98;1696780;83;21049;-77
2022/11/18 10:59:40;;;;;;;20.25;13.55;;;;;;;0.09;67.74;98908.42;1693462;83;20159;-76
2022/11/18 11:02:15;;;;;;;21.50;13.35;;;;;;;0.02;67.93;98901.20;1687768;84;21089;-76
2022/11/18 11:04:41;;;;;;;19.73;13.55;;;;;;;0.07;68.28;98895.97;1693194;83;21018;-76
2022/11/18 11:07:31;;;;;;;17.82;13.58;;;;;;;0.13;68.10;98897.26;1696104;83;21069;-77
2022/11/18 11:10:09;;;;;;;18.05;13.40;;;;;;;0.14;67.99;98902.37;1675684;83;21053;-78
2022/11/18 11:13:03;;;;;;;16.45;11.95;;;;;;;0.18;68.33;98909.48;1693014;83;21074;-80
2022/11/18 11:15:41;;;;;;;18.73;13.13;;;;;;;0.21;68.03;98894.86;1681589;83;21841;-82
2022/11/18 11:18:42;;;;;;;18.30;13.50;;;;;;;0.23;67.86;98902.58;1694842;83;21030;-82
2022/11/18 11:21:26;;;;;;;17.67;13.60;;;;;;;0.20;68.13;98903.66;1720192;83;21063;-82
2022/11/18 11:23:49;;;;;;;16.87;11.75;;;;;;;0.23;68.23;98910.41;1715600;83;21625;-83
2022/11/18 11:26:48;;;;;;;15.98;11.40;;;;;;;0.22;68.24;98917.43;1696628;83;21492;-85
2022/11/18 11:29:39;;;;;;;15.18;11.65;;;;;;;0.26;67.83;98918.84;1698228;83;21160;-85
2022/11/18 11:32:27;;;;;;;16.12;11.63;;;;;;;0.19;67.71;98918.97;1678303;83;21053;-85
2022/11/18 11:35:22;;;;;;;15.38;11.28;;;;;;;0.14;67.67;98914.13;1704960;83;21020;-86
2022/11/18 11:38:27;;;;;;;17.77;12.13;;;;;;;0.11;67.83;98922.19;1702660;83;21071;-86
2022/11/18 11:41:16;;;;;;;15.50;11.03;;;;;;;0.02;67.85;98936.45;1699886;82;21528;-84
2022/11/18 11:44:25;;;;;;;18.12;11.68;;;;;;;-0.08;67.83;98935.89;1712246;83;21780;-85
2022/11/18 11:50:24;;;;;;;14.18;11.45;;;;;;;-0.21;69.53;98950.36;1679909;83;21060;-83
2022/11/18 11:53:05;;;;;;;17.70;12.65;;;;;;;-0.11;69.42;98958.80;1703680;83;21089;-81
2022/11/18 11:55:53;;;;;;;15.58;12.10;;;;;;;-0.09;69.42;98953.80;1719760;82;21068;-82
2022/11/18 11:58:58;;;;;;;16.25;12.03;;;;;;;-0.12;69.30;98954.51;1716608;83;21142;-81
2022/11/18 12:02:08;;;;;;;20.85;11.63;;;;;;;-0.10;69.32;98949.99;1718311;83;21013;-81
2022/11/18 12:04:57;;;;;;;14.13;11.25;;;;;;;-0.15;69.46;98954.28;1719171;83;20994;-84
2022/11/18 12:07:27;;;;;;;15.20;11.40;;;;;;;-0.09;69.72;98954.28;1682215;83;21026;-83
2022/11/18 12:10:37;;;;;;;16.20;11.80;;;;;;;-0.07;69.86;98964.13;1699455;83;21002;-83
2022/11/18 12:13:26;;;;;;;13.93;10.63;;;;;;;-0.05;69.77;98962.23;1671725;84;21459;-81
2022/11/18 12:16:38;;;;;;;17.15;11.05;;;;;;;0.01;69.54;98974.80;1690182;83;21148;-82
2022/11/18 12:19:15;;;;;;;15.60;11.20;;;;;;;-0.03;69.59;98980.73;1706977;82;21580;-80